sensor_id;sensor_type;location;lat;lon;timestamp;temperature;humidity
5868;DHT22;2960;49.142;7.768;2022-10-15T00:01:10;16.70;96.50
5868;DHT22;2960;49.142;7.768;2022-10-15T00:03:39;16.70;96.70
5868;DHT22;2960;49.142;7.768;2022-10-15T00:06:10;16.70;96.70
5868;DHT22;2960;49.142;7.768;2022-10-15T00:08:39;16.70;96.80
5868;DHT22;2960;49.142;7.768;2022-10-15T00:11:08;16.70;96.90
5868;DHT22;2960;49.142;7.768;2022-10-15T00:13:36;16.70;97.00
5868;DHT22;2960;49.142;7.768;2022-10-15T00:16:06;16.70;97.00
5868;DHT22;2960;49.142;7.768;2022-10-15T00:18:34;16.70;97.20
5868;DHT22;2960;49.142;7.768;2022-10-15T00:21:05;16.70;97.40
5868;DHT22;2960;49.142;7.768;2022-10-15T00:23:34;16.70;97.50
5868;DHT22;2960;49.142;7.768;2022-10-15T00:26:06;16.70;97.50
5868;DHT22;2960;49.142;7.768;2022-10-15T00:28:35;16.70;97.50
5868;DHT22;2960;49.142;7.768;2022-10-15T00:31:04;16.70;97.40
5868;DHT22;2960;49.142;7.768;2022-10-15T00:33:33;16.80;97.50
5868;DHT22;2960;49.142;7.768;2022-10-15T00:36:02;16.80;97.60
5868;DHT22;2960;49.142;7.768;2022-10-15T00:38:30;16.80;97.60
5868;DHT22;2960;49.142;7.768;2022-10-15T00:40:59;16.80;97.60
5868;DHT22;2960;49.142;7.768;2022-10-15T00:43:37;16.80;97.60
5868;DHT22;2960;49.142;7.768;2022-10-15T00:46:11;16.80;97.60
5868;DHT22;2960;49.142;7.768;2022-10-15T00:48:43;16.70;97.70
5868;DHT22;2960;49.142;7.768;2022-10-15T00:51:13;16.80;98.00
5868;DHT22;2960;49.142;7.768;2022-10-15T00:53:41;16.80;98.00
5868;DHT22;2960;49.142;7.768;2022-10-15T00:56:09;16.80;98.00
5868;DHT22;2960;49.142;7.768;2022-10-15T00:58:37;16.80;98.10
5868;DHT22;2960;49.142;7.768;2022-10-15T01:01:04;16.80;98.10
5868;DHT22;2960;49.142;7.768;2022-10-15T01:03:32;16.80;98.10
5868;DHT22;2960;49.142;7.768;2022-10-15T01:06:00;16.90;98.10
5868;DHT22;2960;49.142;7.768;2022-10-15T01:08:29;16.90;98.20
5868;DHT22;2960;49.142;7.768;2022-10-15T01:11:08;16.90;98.30
5868;DHT22;2960;49.142;7.768;2022-10-15T01:13:46;16.90;98.50
5868;DHT22;2960;49.142;7.768;2022-10-15T01:16:26;16.90;98.60
5868;DHT22;2960;49.142;7.768;2022-10-15T01:19:01;16.90;98.60
5868;DHT22;2960;49.142;7.768;2022-10-15T01:21:34;16.90;98.70
5868;DHT22;2960;49.142;7.768;2022-10-15T01:24:31;16.90;98.80
5868;DHT22;2960;49.142;7.768;2022-10-15T01:27:23;16.90;98.80
5868;DHT22;2960;49.142;7.768;2022-10-15T01:30:27;16.90;98.90
5868;DHT22;2960;49.142;7.768;2022-10-15T01:33:23;16.90;98.90
5868;DHT22;2960;49.142;7.768;2022-10-15T01:35:55;16.90;98.90
5868;DHT22;2960;49.142;7.768;2022-10-15T01:38:35;16.90;99.10
5868;DHT22;2960;49.142;7.768;2022-10-15T01:41:10;16.90;99.30
5868;DHT22;2960;49.142;7.768;2022-10-15T01:43:44;16.90;99.30
5868;DHT22;2960;49.142;7.768;2022-10-15T01:46:19;16.90;99.30
5868;DHT22;2960;49.142;7.768;2022-10-15T01:48:52;17.00;99.40
5868;DHT22;2960;49.142;7.768;2022-10-15T01:51:21;17.00;99.40
5868;DHT22;2960;49.142;7.768;2022-10-15T01:53:50;17.00;99.40
5868;DHT22;2960;49.142;7.768;2022-10-15T01:56:20;17.00;99.40
5868;DHT22;2960;49.142;7.768;2022-10-15T01:58:50;17.00;99.40
5868;DHT22;2960;49.142;7.768;2022-10-15T02:01:20;17.00;99.40
5868;DHT22;2960;49.142;7.768;2022-10-15T02:03:49;17.00;99.60
5868;DHT22;2960;49.142;7.768;2022-10-15T02:06:22;17.00;99.70
5868;DHT22;2960;49.142;7.768;2022-10-15T02:09:06;17.00;99.90
5868;DHT22;2960;49.142;7.768;2022-10-15T02:11:49;17.00;99.90
5868;DHT22;2960;49.142;7.768;2022-10-15T02:14:28;17.00;99.90
5868;DHT22;2960;49.142;7.768;2022-10-15T02:17:05;17.00;99.90
5868;DHT22;2960;49.142;7.768;2022-10-15T02:19:41;17.00;99.90
5868;DHT22;2960;49.142;7.768;2022-10-15T02:22:13;17.00;99.90
5868;DHT22;2960;49.142;7.768;2022-10-15T02:24:46;17.00;99.90
5868;DHT22;2960;49.142;7.768;2022-10-15T02:27:17;17.00;99.90
5868;DHT22;2960;49.142;7.768;2022-10-15T02:29:48;17.00;99.90
5868;DHT22;2960;49.142;7.768;2022-10-15T02:32:20;17.00;99.90
5868;DHT22;2960;49.142;7.768;2022-10-15T02:34:48;17.00;99.90
5868;DHT22;2960;49.142;7.768;2022-10-15T02:37:20;17.00;99.90
5868;DHT22;2960;49.142;7.768;2022-10-15T02:39:48;17.00;99.90
5868;DHT22;2960;49.142;7.768;2022-10-15T02:42:17;17.00;99.90
5868;DHT22;2960;49.142;7.768;2022-10-15T02:44:44;17.00;99.90
5868;DHT22;2960;49.142;7.768;2022-10-15T02:47:11;17.00;99.90
5868;DHT22;2960;49.142;7.768;2022-10-15T02:49:40;17.10;99.90
5868;DHT22;2960;49.142;7.768;2022-10-15T02:52:07;17.10;99.90
5868;DHT22;2960;49.142;7.768;2022-10-15T02:54:34;17.00;99.90
5868;DHT22;2960;49.142;7.768;2022-10-15T02:57:01;17.10;99.90
5868;DHT22;2960;49.142;7.768;2022-10-15T02:59:28;17.10;99.90
5868;DHT22;2960;49.142;7.768;2022-10-15T03:01:56;17.00;99.90
5868;DHT22;2960;49.142;7.768;2022-10-15T03:04:23;17.00;99.90
5868;DHT22;2960;49.142;7.768;2022-10-15T03:06:51;17.00;99.90
5868;DHT22;2960;49.142;7.768;2022-10-15T03:09:18;17.00;99.90
5868;DHT22;2960;49.142;7.768;2022-10-15T03:11:45;17.00;99.90
5868;DHT22;2960;49.142;7.768;2022-10-15T03:14:12;17.10;99.90
5868;DHT22;2960;49.142;7.768;2022-10-15T03:16:40;17.00;99.90
5868;DHT22;2960;49.142;7.768;2022-10-15T03:19:07;17.00;99.90
5868;DHT22;2960;49.142;7.768;2022-10-15T03:21:34;17.10;99.90
5868;DHT22;2960;49.142;7.768;2022-10-15T03:24:02;17.10;99.90
5868;DHT22;2960;49.142;7.768;2022-10-15T03:26:30;17.10;99.90
5868;DHT22;2960;49.142;7.768;2022-10-15T03:28:57;17.10;99.90
5868;DHT22;2960;49.142;7.768;2022-10-15T03:31:24;17.10;99.90
5868;DHT22;2960;49.142;7.768;2022-10-15T03:33:51;17.10;99.90
5868;DHT22;2960;49.142;7.768;2022-10-15T03:36:18;17.10;99.90
5868;DHT22;2960;49.142;7.768;2022-10-15T03:38:45;17.10;99.90
5868;DHT22;2960;49.142;7.768;2022-10-15T03:41:13;17.10;99.90
5868;DHT22;2960;49.142;7.768;2022-10-15T03:43:40;17.10;99.90
5868;DHT22;2960;49.142;7.768;2022-10-15T03:46:07;17.10;99.90
5868;DHT22;2960;49.142;7.768;2022-10-15T03:48:35;17.10;99.90
5868;DHT22;2960;49.142;7.768;2022-10-15T03:51:02;17.00;99.90
5868;DHT22;2960;49.142;7.768;2022-10-15T03:53:29;17.00;99.90
5868;DHT22;2960;49.142;7.768;2022-10-15T03:56:02;17.00;99.90
5868;DHT22;2960;49.142;7.768;2022-10-15T03:58:31;17.00;99.90
5868;DHT22;2960;49.142;7.768;2022-10-15T04:00:58;17.00;99.90
5868;DHT22;2960;49.142;7.768;2022-10-15T04:03:25;17.00;99.90
5868;DHT22;2960;49.142;7.768;2022-10-15T04:05:52;17.00;99.90
5868;DHT22;2960;49.142;7.768;2022-10-15T04:08:20;17.00;99.90
5868;DHT22;2960;49.142;7.768;2022-10-15T04:10:50;17.00;99.90
5868;DHT22;2960;49.142;7.768;2022-10-15T04:13:17;17.00;99.90
5868;DHT22;2960;49.142;7.768;2022-10-15T04:15:45;17.00;99.90
5868;DHT22;2960;49.142;7.768;2022-10-15T04:18:13;17.00;99.90
5868;DHT22;2960;49.142;7.768;2022-10-15T04:20:40;17.00;99.90
5868;DHT22;2960;49.142;7.768;2022-10-15T04:23:07;17.00;99.90
5868;DHT22;2960;49.142;7.768;2022-10-15T04:25:37;17.00;99.90
5868;DHT22;2960;49.142;7.768;2022-10-15T04:28:04;16.90;99.90
5868;DHT22;2960;49.142;7.768;2022-10-15T04:30:31;16.90;99.90
5868;DHT22;2960;49.142;7.768;2022-10-15T04:33:00;16.90;99.90
5868;DHT22;2960;49.142;7.768;2022-10-15T04:35:28;16.90;99.90
5868;DHT22;2960;49.142;7.768;2022-10-15T04:37:56;16.90;99.90
5868;DHT22;2960;49.142;7.768;2022-10-15T04:40:24;16.90;99.90
5868;DHT22;2960;49.142;7.768;2022-10-15T04:42:51;16.90;99.90
5868;DHT22;2960;49.142;7.768;2022-10-15T04:45:18;16.90;99.90
5868;DHT22;2960;49.142;7.768;2022-10-15T04:47:45;16.90;99.90
5868;DHT22;2960;49.142;7.768;2022-10-15T04:50:13;16.90;99.90
5868;DHT22;2960;49.142;7.768;2022-10-15T04:52:41;16.90;99.90
5868;DHT22;2960;49.142;7.768;2022-10-15T04:55:11;16.90;99.90
5868;DHT22;2960;49.142;7.768;2022-10-15T04:57:38;16.90;99.90
5868;DHT22;2960;49.142;7.768;2022-10-15T05:00:07;16.90;99.90
5868;DHT22;2960;49.142;7.768;2022-10-15T05:02:35;16.90;99.90
5868;DHT22;2960;49.142;7.768;2022-10-15T05:05:03;16.90;99.90
5868;DHT22;2960;49.142;7.768;2022-10-15T05:07:31;16.90;99.90
5868;DHT22;2960;49.142;7.768;2022-10-15T05:09:58;16.90;99.90
5868;DHT22;2960;49.142;7.768;2022-10-15T05:12:25;16.90;99.90
5868;DHT22;2960;49.142;7.768;2022-10-15T05:14:52;16.90;99.90
5868;DHT22;2960;49.142;7.768;2022-10-15T05:17:21;16.90;99.90
5868;DHT22;2960;49.142;7.768;2022-10-15T05:19:51;16.90;99.90
5868;DHT22;2960;49.142;7.768;2022-10-15T05:22:18;16.90;99.90
5868;DHT22;2960;49.142;7.768;2022-10-15T05:24:46;16.90;99.90
5868;DHT22;2960;49.142;7.768;2022-10-15T05:27:13;16.80;99.90
5868;DHT22;2960;49.142;7.768;2022-10-15T05:29:40;16.80;99.90
5868;DHT22;2960;49.142;7.768;2022-10-15T05:32:07;16.80;99.90
5868;DHT22;2960;49.142;7.768;2022-10-15T05:34:34;16.80;99.90
5868;DHT22;2960;49.142;7.768;2022-10-15T05:37:02;16.80;99.90
5868;DHT22;2960;49.142;7.768;2022-10-15T05:39:29;16.90;99.90
5868;DHT22;2960;49.142;7.768;2022-10-15T05:41:57;16.90;99.90
5868;DHT22;2960;49.142;7.768;2022-10-15T05:44:24;16.80;99.90
5868;DHT22;2960;49.142;7.768;2022-10-15T05:46:51;16.90;99.80
5868;DHT22;2960;49.142;7.768;2022-10-15T05:49:18;16.90;99.70
5868;DHT22;2960;49.142;7.768;2022-10-15T05:51:45;16.90;99.60
5868;DHT22;2960;49.142;7.768;2022-10-15T05:54:12;16.80;99.60
5868;DHT22;2960;49.142;7.768;2022-10-15T05:56:39;16.80;99.70
5868;DHT22;2960;49.142;7.768;2022-10-15T05:59:08;16.80;99.80
5868;DHT22;2960;49.142;7.768;2022-10-15T06:01:35;16.80;99.80
5868;DHT22;2960;49.142;7.768;2022-10-15T06:04:02;16.80;99.70
5868;DHT22;2960;49.142;7.768;2022-10-15T06:06:29;16.80;99.60
5868;DHT22;2960;49.142;7.768;2022-10-15T06:08:57;16.80;99.50
5868;DHT22;2960;49.142;7.768;2022-10-15T06:11:26;16.80;99.40
5868;DHT22;2960;49.142;7.768;2022-10-15T06:13:53;16.80;99.40
5868;DHT22;2960;49.142;7.768;2022-10-15T06:16:22;16.80;99.40
5868;DHT22;2960;49.142;7.768;2022-10-15T06:18:50;16.80;99.20
5868;DHT22;2960;49.142;7.768;2022-10-15T06:21:17;16.80;99.20
5868;DHT22;2960;49.142;7.768;2022-10-15T06:23:45;16.80;99.10
5868;DHT22;2960;49.142;7.768;2022-10-15T06:26:12;16.80;99.10
5868;DHT22;2960;49.142;7.768;2022-10-15T06:28:39;16.80;99.00
5868;DHT22;2960;49.142;7.768;2022-10-15T06:31:06;16.80;99.00
5868;DHT22;2960;49.142;7.768;2022-10-15T06:33:35;16.80;99.00
5868;DHT22;2960;49.142;7.768;2022-10-15T06:36:03;16.80;99.00
5868;DHT22;2960;49.142;7.768;2022-10-15T06:38:31;16.80;98.90
5868;DHT22;2960;49.142;7.768;2022-10-15T06:40:59;16.90;98.90
5868;DHT22;2960;49.142;7.768;2022-10-15T06:43:26;16.90;98.90
5868;DHT22;2960;49.142;7.768;2022-10-15T06:45:53;16.90;98.90
5868;DHT22;2960;49.142;7.768;2022-10-15T06:48:20;16.80;98.90
5868;DHT22;2960;49.142;7.768;2022-10-15T06:50:48;16.80;98.90
5868;DHT22;2960;49.142;7.768;2022-10-15T06:53:15;16.80;99.30
5868;DHT22;2960;49.142;7.768;2022-10-15T06:55:43;16.90;99.10
5868;DHT22;2960;49.142;7.768;2022-10-15T06:58:10;16.90;99.00
5868;DHT22;2960;49.142;7.768;2022-10-15T07:00:37;16.90;98.90
5868;DHT22;2960;49.142;7.768;2022-10-15T07:03:05;16.90;98.80
5868;DHT22;2960;49.142;7.768;2022-10-15T07:05:33;16.90;98.80
5868;DHT22;2960;49.142;7.768;2022-10-15T07:08:02;16.90;98.80
5868;DHT22;2960;49.142;7.768;2022-10-15T07:10:29;16.90;98.80
5868;DHT22;2960;49.142;7.768;2022-10-15T07:12:58;16.90;98.70
5868;DHT22;2960;49.142;7.768;2022-10-15T07:15:26;16.90;98.70
5868;DHT22;2960;49.142;7.768;2022-10-15T07:17:54;16.90;98.60
5868;DHT22;2960;49.142;7.768;2022-10-15T07:20:26;16.90;98.80
5868;DHT22;2960;49.142;7.768;2022-10-15T07:22:55;16.90;98.90
5868;DHT22;2960;49.142;7.768;2022-10-15T07:25:25;16.90;98.90
5868;DHT22;2960;49.142;7.768;2022-10-15T07:27:52;17.00;99.20
5868;DHT22;2960;49.142;7.768;2022-10-15T07:30:20;17.00;98.80
5868;DHT22;2960;49.142;7.768;2022-10-15T07:32:47;17.00;98.80
5868;DHT22;2960;49.142;7.768;2022-10-15T07:35:15;17.00;98.70
5868;DHT22;2960;49.142;7.768;2022-10-15T07:37:42;17.00;98.70
5868;DHT22;2960;49.142;7.768;2022-10-15T07:40:10;17.00;98.70
5868;DHT22;2960;49.142;7.768;2022-10-15T07:42:39;17.00;98.70
5868;DHT22;2960;49.142;7.768;2022-10-15T07:45:07;17.00;98.70
5868;DHT22;2960;49.142;7.768;2022-10-15T07:47:35;17.10;98.60
5868;DHT22;2960;49.142;7.768;2022-10-15T07:50:02;17.10;98.60
5868;DHT22;2960;49.142;7.768;2022-10-15T07:52:30;17.00;98.50
5868;DHT22;2960;49.142;7.768;2022-10-15T07:54:57;17.10;98.60
5868;DHT22;2960;49.142;7.768;2022-10-15T07:57:24;17.10;98.90
5868;DHT22;2960;49.142;7.768;2022-10-15T07:59:52;17.10;98.70
5868;DHT22;2960;49.142;7.768;2022-10-15T08:02:19;17.10;98.80
5868;DHT22;2960;49.142;7.768;2022-10-15T08:04:47;17.10;98.80
5868;DHT22;2960;49.142;7.768;2022-10-15T08:07:14;17.10;98.90
5868;DHT22;2960;49.142;7.768;2022-10-15T08:09:41;17.10;99.00
5868;DHT22;2960;49.142;7.768;2022-10-15T08:12:08;17.10;99.00
5868;DHT22;2960;49.142;7.768;2022-10-15T08:14:35;17.10;99.10
5868;DHT22;2960;49.142;7.768;2022-10-15T08:17:05;17.10;99.10
5868;DHT22;2960;49.142;7.768;2022-10-15T08:19:32;17.10;99.10
5868;DHT22;2960;49.142;7.768;2022-10-15T08:21:59;17.10;99.20
5868;DHT22;2960;49.142;7.768;2022-10-15T08:24:26;17.10;99.20
5868;DHT22;2960;49.142;7.768;2022-10-15T08:26:56;17.10;99.30
5868;DHT22;2960;49.142;7.768;2022-10-15T08:29:23;17.10;99.40
5868;DHT22;2960;49.142;7.768;2022-10-15T08:31:50;17.10;99.60
5868;DHT22;2960;49.142;7.768;2022-10-15T08:34:18;17.10;99.70
5868;DHT22;2960;49.142;7.768;2022-10-15T08:36:45;17.20;99.60
5868;DHT22;2960;49.142;7.768;2022-10-15T08:39:13;17.20;99.60
5868;DHT22;2960;49.142;7.768;2022-10-15T08:41:43;17.20;99.90
5868;DHT22;2960;49.142;7.768;2022-10-15T08:44:17;17.30;99.90
5868;DHT22;2960;49.142;7.768;2022-10-15T08:46:49;17.30;99.90
5868;DHT22;2960;49.142;7.768;2022-10-15T08:49:27;17.30;99.90
5868;DHT22;2960;49.142;7.768;2022-10-15T08:52:07;17.40;99.90
5868;DHT22;2960;49.142;7.768;2022-10-15T08:54:41;17.40;99.90
5868;DHT22;2960;49.142;7.768;2022-10-15T08:57:16;17.40;99.90
5868;DHT22;2960;49.142;7.768;2022-10-15T08:59:53;17.40;99.70
5868;DHT22;2960;49.142;7.768;2022-10-15T09:02:29;17.40;99.70
5868;DHT22;2960;49.142;7.768;2022-10-15T09:05:10;17.40;99.80
5868;DHT22;2960;49.142;7.768;2022-10-15T09:07:50;17.40;99.90
5868;DHT22;2960;49.142;7.768;2022-10-15T09:10:29;17.40;99.80
5868;DHT22;2960;49.142;7.768;2022-10-15T09:13:01;17.40;99.80
5868;DHT22;2960;49.142;7.768;2022-10-15T09:15:33;17.40;99.90
5868;DHT22;2960;49.142;7.768;2022-10-15T09:18:11;17.40;99.90
5868;DHT22;2960;49.142;7.768;2022-10-15T09:20:46;17.50;99.90
5868;DHT22;2960;49.142;7.768;2022-10-15T09:23:17;17.50;99.90
5868;DHT22;2960;49.142;7.768;2022-10-15T09:25:50;17.60;99.90
5868;DHT22;2960;49.142;7.768;2022-10-15T09:28:25;17.60;99.90
5868;DHT22;2960;49.142;7.768;2022-10-15T09:30:57;17.60;99.90
5868;DHT22;2960;49.142;7.768;2022-10-15T09:33:34;17.70;99.90
5868;DHT22;2960;49.142;7.768;2022-10-15T09:36:24;17.80;99.90
5868;DHT22;2960;49.142;7.768;2022-10-15T09:39:06;17.90;99.70
5868;DHT22;2960;49.142;7.768;2022-10-15T09:41:51;17.90;99.30
5868;DHT22;2960;49.142;7.768;2022-10-15T09:44:24;18.00;99.10
5868;DHT22;2960;49.142;7.768;2022-10-15T09:46:56;18.00;99.00
5868;DHT22;2960;49.142;7.768;2022-10-15T09:49:25;18.00;98.80
5868;DHT22;2960;49.142;7.768;2022-10-15T09:52:00;18.00;98.50
5868;DHT22;2960;49.142;7.768;2022-10-15T09:54:38;18.00;98.40
5868;DHT22;2960;49.142;7.768;2022-10-15T09:57:10;18.00;98.30
5868;DHT22;2960;49.142;7.768;2022-10-15T09:59:51;18.00;98.30
5868;DHT22;2960;49.142;7.768;2022-10-15T10:02:20;18.10;98.20
5868;DHT22;2960;49.142;7.768;2022-10-15T10:04:48;18.10;98.40
5868;DHT22;2960;49.142;7.768;2022-10-15T10:07:31;18.10;98.40
5868;DHT22;2960;49.142;7.768;2022-10-15T10:10:02;18.10;98.40
5868;DHT22;2960;49.142;7.768;2022-10-15T10:12:33;18.20;98.80
5868;DHT22;2960;49.142;7.768;2022-10-15T10:15:04;18.30;99.20
5868;DHT22;2960;49.142;7.768;2022-10-15T10:17:34;18.40;98.30
5868;DHT22;2960;49.142;7.768;2022-10-15T10:20:11;18.50;97.90
5868;DHT22;2960;49.142;7.768;2022-10-15T10:22:44;18.50;97.60
5868;DHT22;2960;49.142;7.768;2022-10-15T10:25:30;18.60;97.40
5868;DHT22;2960;49.142;7.768;2022-10-15T10:28:12;18.70;96.80
5868;DHT22;2960;49.142;7.768;2022-10-15T10:30:49;18.70;96.60
5868;DHT22;2960;49.142;7.768;2022-10-15T10:33:24;18.70;96.10
5868;DHT22;2960;49.142;7.768;2022-10-15T10:35:55;18.70;95.70
5868;DHT22;2960;49.142;7.768;2022-10-15T10:38:26;18.70;95.60
5868;DHT22;2960;49.142;7.768;2022-10-15T10:40:58;18.70;95.50
5868;DHT22;2960;49.142;7.768;2022-10-15T10:43:30;18.70;95.60
5868;DHT22;2960;49.142;7.768;2022-10-15T10:46:00;18.70;95.60
5868;DHT22;2960;49.142;7.768;2022-10-15T10:48:36;18.80;95.20
5868;DHT22;2960;49.142;7.768;2022-10-15T10:51:08;18.70;95.10
5868;DHT22;2960;49.142;7.768;2022-10-15T10:53:45;18.70;95.00
5868;DHT22;2960;49.142;7.768;2022-10-15T10:56:16;18.80;95.30
5868;DHT22;2960;49.142;7.768;2022-10-15T10:58:44;18.80;95.30
5868;DHT22;2960;49.142;7.768;2022-10-15T11:01:12;18.90;95.10
5868;DHT22;2960;49.142;7.768;2022-10-15T11:03:40;18.90;94.70
5868;DHT22;2960;49.142;7.768;2022-10-15T11:06:24;18.90;94.60
5868;DHT22;2960;49.142;7.768;2022-10-15T11:09:13;18.90;94.30
5868;DHT22;2960;49.142;7.768;2022-10-15T11:11:52;18.80;94.30
5868;DHT22;2960;49.142;7.768;2022-10-15T11:14:32;18.80;94.20
5868;DHT22;2960;49.142;7.768;2022-10-15T11:17:12;18.70;94.10
5868;DHT22;2960;49.142;7.768;2022-10-15T11:19:46;18.60;94.20
5868;DHT22;2960;49.142;7.768;2022-10-15T11:22:34;18.60;94.20
5868;DHT22;2960;49.142;7.768;2022-10-15T11:25:20;18.50;94.20
5868;DHT22;2960;49.142;7.768;2022-10-15T11:27:56;18.50;94.20
5868;DHT22;2960;49.142;7.768;2022-10-15T11:30:44;18.40;94.40
5868;DHT22;2960;49.142;7.768;2022-10-15T11:33:34;18.40;94.40
5868;DHT22;2960;49.142;7.768;2022-10-15T11:36:23;18.40;94.50
5868;DHT22;2960;49.142;7.768;2022-10-15T11:39:08;18.40;94.60
5868;DHT22;2960;49.142;7.768;2022-10-15T11:41:50;18.40;94.60
5868;DHT22;2960;49.142;7.768;2022-10-15T11:44:33;18.40;94.60
5868;DHT22;2960;49.142;7.768;2022-10-15T11:47:17;18.40;94.40
5868;DHT22;2960;49.142;7.768;2022-10-15T11:50:02;18.40;94.40
5868;DHT22;2960;49.142;7.768;2022-10-15T11:52:59;18.40;94.50
5868;DHT22;2960;49.142;7.768;2022-10-15T11:55:35;18.40;94.20
5868;DHT22;2960;49.142;7.768;2022-10-15T11:58:12;18.30;94.30
5868;DHT22;2960;49.142;7.768;2022-10-15T12:00:57;18.30;94.30
5868;DHT22;2960;49.142;7.768;2022-10-15T12:03:27;18.30;94.30
5868;DHT22;2960;49.142;7.768;2022-10-15T12:05:59;18.30;94.40
5868;DHT22;2960;49.142;7.768;2022-10-15T12:08:31;18.30;94.40
5868;DHT22;2960;49.142;7.768;2022-10-15T12:11:12;18.30;94.40
5868;DHT22;2960;49.142;7.768;2022-10-15T12:13:52;18.20;94.30
5868;DHT22;2960;49.142;7.768;2022-10-15T12:16:26;18.20;94.40
5868;DHT22;2960;49.142;7.768;2022-10-15T12:19:02;18.20;94.50
5868;DHT22;2960;49.142;7.768;2022-10-15T12:21:40;18.20;94.70
5868;DHT22;2960;49.142;7.768;2022-10-15T12:27:29;18.20;94.60
5868;DHT22;2960;49.142;7.768;2022-10-15T12:30:20;18.10;94.60
5868;DHT22;2960;49.142;7.768;2022-10-15T12:32:49;18.10;94.70
5868;DHT22;2960;49.142;7.768;2022-10-15T12:35:35;18.10;94.90
5868;DHT22;2960;49.142;7.768;2022-10-15T12:38:26;18.10;94.90
5868;DHT22;2960;49.142;7.768;2022-10-15T12:40:58;18.10;95.00
5868;DHT22;2960;49.142;7.768;2022-10-15T12:43:27;18.10;95.40
5868;DHT22;2960;49.142;7.768;2022-10-15T12:45:58;18.10;95.20
5868;DHT22;2960;49.142;7.768;2022-10-15T12:48:33;18.10;95.30
5868;DHT22;2960;49.142;7.768;2022-10-15T12:53:59;18.10;95.20
5868;DHT22;2960;49.142;7.768;2022-10-15T12:56:37;18.10;95.40
5868;DHT22;2960;49.142;7.768;2022-10-15T12:59:27;18.10;95.30
5868;DHT22;2960;49.142;7.768;2022-10-15T13:01:57;18.10;95.40
5868;DHT22;2960;49.142;7.768;2022-10-15T13:04:36;18.10;95.50
5868;DHT22;2960;49.142;7.768;2022-10-15T13:07:05;18.20;95.60
5868;DHT22;2960;49.142;7.768;2022-10-15T13:09:32;18.20;95.70
5868;DHT22;2960;49.142;7.768;2022-10-15T13:12:01;18.20;95.60
5868;DHT22;2960;49.142;7.768;2022-10-15T13:14:31;18.20;95.60
5868;DHT22;2960;49.142;7.768;2022-10-15T13:17:04;18.20;95.70
5868;DHT22;2960;49.142;7.768;2022-10-15T13:19:35;18.20;95.70
5868;DHT22;2960;49.142;7.768;2022-10-15T13:22:17;18.20;95.80
5868;DHT22;2960;49.142;7.768;2022-10-15T13:24:49;18.20;95.80
5868;DHT22;2960;49.142;7.768;2022-10-15T13:27:22;18.20;95.80
5868;DHT22;2960;49.142;7.768;2022-10-15T13:29:55;18.20;95.80
5868;DHT22;2960;49.142;7.768;2022-10-15T13:32:26;18.20;95.90
5868;DHT22;2960;49.142;7.768;2022-10-15T13:34:55;18.20;95.90
5868;DHT22;2960;49.142;7.768;2022-10-15T13:37:29;18.20;95.90
5868;DHT22;2960;49.142;7.768;2022-10-15T13:39:57;18.20;96.00
5868;DHT22;2960;49.142;7.768;2022-10-15T13:42:28;18.20;96.00
5868;DHT22;2960;49.142;7.768;2022-10-15T13:44:58;18.20;96.00
5868;DHT22;2960;49.142;7.768;2022-10-15T13:47:30;18.20;96.00
5868;DHT22;2960;49.142;7.768;2022-10-15T13:50:21;18.30;96.00
5868;DHT22;2960;49.142;7.768;2022-10-15T13:52:52;18.30;96.00
5868;DHT22;2960;49.142;7.768;2022-10-15T13:55:23;18.30;96.20
5868;DHT22;2960;49.142;7.768;2022-10-15T13:57:58;18.30;96.20
5868;DHT22;2960;49.142;7.768;2022-10-15T14:00:28;18.30;96.10
5868;DHT22;2960;49.142;7.768;2022-10-15T14:03:17;18.30;95.90
5868;DHT22;2960;49.142;7.768;2022-10-15T14:05:48;18.30;95.90
5868;DHT22;2960;49.142;7.768;2022-10-15T14:08:21;18.30;95.80
5868;DHT22;2960;49.142;7.768;2022-10-15T14:10:51;18.30;95.80
5868;DHT22;2960;49.142;7.768;2022-10-15T14:13:23;18.20;95.80
5868;DHT22;2960;49.142;7.768;2022-10-15T14:15:57;18.20;95.90
5868;DHT22;2960;49.142;7.768;2022-10-15T14:18:35;18.20;96.00
5868;DHT22;2960;49.142;7.768;2022-10-15T14:21:09;18.30;96.10
5868;DHT22;2960;49.142;7.768;2022-10-15T14:23:37;18.30;96.10
5868;DHT22;2960;49.142;7.768;2022-10-15T14:26:05;18.30;96.30
5868;DHT22;2960;49.142;7.768;2022-10-15T14:28:36;18.30;96.00
5868;DHT22;2960;49.142;7.768;2022-10-15T14:31:04;18.30;96.00
5868;DHT22;2960;49.142;7.768;2022-10-15T14:33:39;18.30;95.90
5868;DHT22;2960;49.142;7.768;2022-10-15T14:36:15;18.40;95.90
5868;DHT22;2960;49.142;7.768;2022-10-15T14:38:49;18.40;95.90
5868;DHT22;2960;49.142;7.768;2022-10-15T14:41:25;18.40;95.90
5868;DHT22;2960;49.142;7.768;2022-10-15T14:44:03;18.40;95.90
5868;DHT22;2960;49.142;7.768;2022-10-15T14:46:37;18.40;95.80
5868;DHT22;2960;49.142;7.768;2022-10-15T14:49:23;18.40;95.80
5868;DHT22;2960;49.142;7.768;2022-10-15T14:51:57;18.40;95.90
5868;DHT22;2960;49.142;7.768;2022-10-15T14:54:34;18.40;95.50
5868;DHT22;2960;49.142;7.768;2022-10-15T14:57:03;18.40;95.60
5868;DHT22;2960;49.142;7.768;2022-10-15T14:59:34;18.40;95.70
5868;DHT22;2960;49.142;7.768;2022-10-15T15:02:04;18.40;95.70
5868;DHT22;2960;49.142;7.768;2022-10-15T15:04:40;18.30;95.60
5868;DHT22;2960;49.142;7.768;2022-10-15T15:07:12;18.40;95.60
5868;DHT22;2960;49.142;7.768;2022-10-15T15:09:46;18.40;95.60
5868;DHT22;2960;49.142;7.768;2022-10-15T15:12:17;18.40;95.70
5868;DHT22;2960;49.142;7.768;2022-10-15T15:14:46;18.40;95.60
5868;DHT22;2960;49.142;7.768;2022-10-15T15:17:18;18.40;95.50
5868;DHT22;2960;49.142;7.768;2022-10-15T15:19:49;18.40;95.50
5868;DHT22;2960;49.142;7.768;2022-10-15T15:22:25;18.30;95.40
5868;DHT22;2960;49.142;7.768;2022-10-15T15:24:57;18.30;95.40
5868;DHT22;2960;49.142;7.768;2022-10-15T15:27:32;18.30;95.40
5868;DHT22;2960;49.142;7.768;2022-10-15T15:30:04;18.30;95.40
5868;DHT22;2960;49.142;7.768;2022-10-15T15:32:32;18.30;95.40
5868;DHT22;2960;49.142;7.768;2022-10-15T15:35:01;18.30;95.40
5868;DHT22;2960;49.142;7.768;2022-10-15T15:37:31;18.30;95.40
5868;DHT22;2960;49.142;7.768;2022-10-15T15:39:58;18.30;95.20
5868;DHT22;2960;49.142;7.768;2022-10-15T15:42:25;18.30;95.20
5868;DHT22;2960;49.142;7.768;2022-10-15T15:44:52;18.30;95.20
5868;DHT22;2960;49.142;7.768;2022-10-15T15:47:19;18.30;95.30
5868;DHT22;2960;49.142;7.768;2022-10-15T15:49:47;18.30;95.30
5868;DHT22;2960;49.142;7.768;2022-10-15T15:52:19;18.30;95.20
5868;DHT22;2960;49.142;7.768;2022-10-15T15:54:46;18.20;95.10
5868;DHT22;2960;49.142;7.768;2022-10-15T15:57:13;18.20;95.10
5868;DHT22;2960;49.142;7.768;2022-10-15T15:59:40;18.20;95.00
5868;DHT22;2960;49.142;7.768;2022-10-15T16:02:09;18.20;95.00
5868;DHT22;2960;49.142;7.768;2022-10-15T16:04:37;18.20;95.00
5868;DHT22;2960;49.142;7.768;2022-10-15T16:07:04;18.20;95.00
5868;DHT22;2960;49.142;7.768;2022-10-15T16:09:33;18.10;95.10
5868;DHT22;2960;49.142;7.768;2022-10-15T16:12:00;18.10;95.20
5868;DHT22;2960;49.142;7.768;2022-10-15T16:14:27;18.00;95.20
5868;DHT22;2960;49.142;7.768;2022-10-15T16:16:54;18.00;95.30
5868;DHT22;2960;49.142;7.768;2022-10-15T16:19:21;18.00;95.30
5868;DHT22;2960;49.142;7.768;2022-10-15T16:21:49;18.00;95.20
5868;DHT22;2960;49.142;7.768;2022-10-15T16:24:16;18.00;95.20
5868;DHT22;2960;49.142;7.768;2022-10-15T16:26:44;18.00;95.10
5868;DHT22;2960;49.142;7.768;2022-10-15T16:29:11;18.00;95.10
5868;DHT22;2960;49.142;7.768;2022-10-15T16:31:39;18.00;95.10
5868;DHT22;2960;49.142;7.768;2022-10-15T16:34:06;18.00;95.10
5868;DHT22;2960;49.142;7.768;2022-10-15T16:36:33;18.00;95.10